Time;durP1;ratioP1;P1;durP2;ratioP2;P2;SDS_P1;SDS_P2;PMS_P1;PMS_P2;Temp;Humidity;BMP_temperature;BMP_pressure;BME280_temperature;BME280_humidity;BME280_pressure;Samples;Min_cycle;Max_cycle;Signal;HPM_P1;HPM_P2
2023/08/16 00:02:14;;;;;;;7.85;5.97;;;19.80;99.90;;;;;;5031097;28;20021;-57
2023/08/16 00:04:41;;;;;;;7.75;7.15;;;19.80;99.90;;;;;;5027503;28;20153;-60
2023/08/16 00:07:07;;;;;;;10.10;7.32;;;19.80;99.90;;;;;;5030428;28;20033;-60
2023/08/16 00:09:33;;;;;;;8.35;6.45;;;19.80;99.90;;;;;;5030993;28;20545;-59
2023/08/16 00:11:59;;;;;;;8.88;7.25;;;19.80;99.90;;;;;;5029211;28;20036;-57
2023/08/16 00:14:24;;;;;;;9.30;7.38;;;19.80;99.90;;;;;;5033376;28;20030;-57
2023/08/16 00:16:50;;;;;;;10.60;8.60;;;19.80;99.90;;;;;;5033147;28;20404;-61
2023/08/16 00:19:16;;;;;;;13.35;10.23;;;19.80;99.90;;;;;;5028489;28;20044;-59
2023/08/16 00:21:42;;;;;;;14.98;9.52;;;19.90;99.90;;;;;;5027321;28;20486;-60
2023/08/16 00:24:07;;;;;;;7.65;7.00;;;19.90;99.90;;;;;;5026275;28;20124;-59
2023/08/16 00:26:33;;;;;;;11.82;6.65;;;19.90;99.90;;;;;;5028147;28;20033;-58
2023/08/16 00:29:00;;;;;;;9.23;7.68;;;20.00;99.90;;;;;;5028301;28;20435;-58
2023/08/16 00:31:25;;;;;;;8.57;7.75;;;20.00;99.90;;;;;;5029004;28;20143;-59
2023/08/16 00:33:51;;;;;;;9.63;7.97;;;20.00;99.90;;;;;;5025618;28;20045;-60
2023/08/16 00:36:17;;;;;;;12.35;8.57;;;20.00;99.90;;;;;;5028989;28;20026;-59
2023/08/16 00:38:42;;;;;;;10.18;9.00;;;20.00;99.90;;;;;;5026901;28;20120;-60
2023/08/16 00:41:12;;;;;;;10.75;7.78;;;19.90;99.90;;;;;;5022896;28;20037;-60
2023/08/16 00:43:38;;;;;;;9.10;8.07;;;19.90;99.90;;;;;;5023697;28;20033;-58
2023/08/16 00:46:09;;;;;;;9.27;8.48;;;19.90;99.90;;;;;;5024015;28;20763;-59
2023/08/16 00:48:37;;;;;;;8.95;7.93;;;19.90;99.90;;;;;;5028124;28;20092;-60
2023/08/16 00:51:03;;;;;;;9.13;8.20;;;19.90;99.90;;;;;;5028948;28;20018;-60
2023/08/16 00:53:30;;;;;;;8.52;7.72;;;19.80;99.90;;;;;;5024076;28;20018;-59
2023/08/16 00:55:57;;;;;;;8.00;7.38;;;19.80;99.90;;;;;;5021098;28;20464;-60
2023/08/16 00:58:23;;;;;;;8.27;7.68;;;19.70;99.90;;;;;;5025685;28;20029;-58
2023/08/16 01:00:49;;;;;;;8.85;8.15;;;19.60;99.90;;;;;;5029532;28;20053;-58
2023/08/16 01:03:15;;;;;;;8.07;7.47;;;19.60;99.90;;;;;;5027136;28;20057;-59
2023/08/16 01:05:40;;;;;;;9.15;7.13;;;19.60;99.90;;;;;;5030786;28;20025;-60
2023/08/16 01:08:07;;;;;;;10.00;8.23;;;19.60;99.90;;;;;;5028491;28;20155;-59
2023/08/16 01:10:54;;;;;;;8.10;7.40;;;19.60;99.90;;;;;;5027612;28;20406;-58
2023/08/16 01:13:36;;;;;;;8.05;7.35;;;19.60;99.90;;;;;;5032541;28;20028;-60
2023/08/16 01:16:08;;;;;;;7.68;7.00;;;19.60;99.90;;;;;;5029635;28;20403;-58
2023/08/16 01:18:37;;;;;;;8.43;7.50;;;19.60;99.90;;;;;;5031392;28;20128;-60
2023/08/16 01:21:05;;;;;;;8.48;7.13;;;19.50;99.90;;;;;;5023063;28;20033;-58
2023/08/16 01:24:06;;;;;;;7.97;7.38;;;19.50;99.90;;;;;;5022103;28;20025;-59
2023/08/16 01:26:36;;;;;;;9.80;7.43;;;19.40;99.90;;;;;;5028201;28;20052;-58
2023/08/16 01:29:05;;;;;;;7.78;7.13;;;19.30;99.90;;;;;;5025208;28;20077;-59
2023/08/16 01:31:33;;;;;;;8.07;7.45;;;19.30;99.90;;;;;;5027738;28;20033;-58
2023/08/16 01:33:59;;;;;;;8.15;7.35;;;19.20;99.90;;;;;;5024632;28;20034;-60
2023/08/16 01:36:25;;;;;;;10.02;7.35;;;19.10;99.90;;;;;;5025449;28;20108;-60
2023/08/16 01:38:52;;;;;;;9.07;7.18;;;19.00;99.90;;;;;;5034499;28;20053;-59
2023/08/16 01:41:45;;;;;;;7.57;6.97;;;19.00;99.90;;;;;;5032445;28;20017;-59
2023/08/16 01:44:12;;;;;;;7.43;6.88;;;19.00;99.90;;;;;;5030175;28;20496;-60
2023/08/16 01:46:40;;;;;;;11.27;7.20;;;18.90;99.90;;;;;;5023982;28;20073;-59
2023/08/16 01:49:07;;;;;;;9.27;7.20;;;18.80;99.90;;;;;;5025413;28;20033;-58
2023/08/16 01:51:33;;;;;;;6.80;6.20;;;18.80;99.90;;;;;;5028780;28;20494;-58
2023/08/16 01:53:59;;;;;;;9.00;8.30;;;18.80;99.90;;;;;;5022760;28;20040;-57
2023/08/16 01:56:24;;;;;;;8.18;7.35;;;18.80;99.90;;;;;;5021244;28;20094;-58
2023/08/16 01:58:50;;;;;;;8.57;6.95;;;18.80;99.90;;;;;;5023372;28;20502;-60
2023/08/16 02:01:16;;;;;;;9.10;8.13;;;18.80;99.90;;;;;;5027180;28;20268;-59
2023/08/16 02:03:41;;;;;;;8.55;7.18;;;18.80;99.90;;;;;;5031862;28;20038;-59
2023/08/16 02:06:07;;;;;;;9.02;8.27;;;18.90;99.90;;;;;;5025715;28;20021;-57
2023/08/16 02:08:33;;;;;;;9.52;8.73;;;18.90;99.90;;;;;;5026431;28;20057;-60
2023/08/16 02:10:58;;;;;;;9.15;8.52;;;18.90;99.90;;;;;;5026346;28;20079;-58
2023/08/16 02:13:24;;;;;;;9.27;8.45;;;19.00;99.90;;;;;;5027352;28;20022;-60
2023/08/16 02:15:57;;;;;;;8.30;7.63;;;19.00;99.90;;;;;;5025776;28;20034;-59
2023/08/16 02:18:22;;;;;;;11.20;7.72;;;19.00;99.90;;;;;;5020793;28;20595;-56
2023/08/16 02:20:51;;;;;;;9.63;7.75;;;19.00;99.90;;;;;;5020025;28;20029;-59
2023/08/16 02:23:17;;;;;;;8.07;7.43;;;19.00;99.90;;;;;;5016646;28;20494;-59
2023/08/16 02:25:44;;;;;;;9.38;8.57;;;18.90;99.90;;;;;;5027327;28;20044;-60
2023/08/16 02:28:09;;;;;;;9.13;7.70;;;18.90;99.90;;;;;;5027119;28;20029;-58
2023/08/16 02:30:35;;;;;;;7.57;6.97;;;18.90;99.90;;;;;;5029975;28;20030;-56
2023/08/16 02:33:00;;;;;;;8.02;6.82;;;18.90;99.90;;;;;;5025857;28;20025;-58
2023/08/16 02:35:26;;;;;;;8.35;7.53;;;18.80;99.90;;;;;;5028186;28;20022;-60
2023/08/16 02:37:51;;;;;;;7.80;7.10;;;18.80;99.90;;;;;;5030305;28;20065;-58
2023/08/16 02:40:17;;;;;;;7.90;7.30;;;18.80;99.90;;;;;;5030910;28;20493;-60
2023/08/16 02:42:43;;;;;;;7.90;7.20;;;18.70;99.90;;;;;;5030241;28;20036;-60
2023/08/16 02:45:09;;;;;;;9.98;6.40;;;18.70;99.90;;;;;;5030374;28;20068;-59
2023/08/16 02:47:34;;;;;;;10.48;7.15;;;18.60;99.90;;;;;;5030839;28;20148;-58
2023/08/16 02:50:00;;;;;;;8.07;6.82;;;18.60;99.90;;;;;;5027647;28;20168;-59
2023/08/16 02:52:26;;;;;;;7.70;7.10;;;18.60;99.90;;;;;;5031828;28;20477;-58
2023/08/16 02:54:51;;;;;;;7.97;7.22;;;18.50;99.90;;;;;;5025840;28;20049;-60
2023/08/16 02:57:18;;;;;;;8.50;7.70;;;18.50;99.90;;;;;;5028112;28;20048;-59
2023/08/16 02:59:47;;;;;;;9.75;7.53;;;18.50;99.90;;;;;;5026977;28;20029;-59
2023/08/16 03:02:13;;;;;;;9.60;8.80;;;18.50;99.90;;;;;;5028697;28;20037;-59
2023/08/16 03:04:39;;;;;;;9.50;8.60;;;18.50;99.90;;;;;;5031608;28;20432;-58
2023/08/16 03:07:08;;;;;;;10.05;9.23;;;18.50;99.90;;;;;;5031771;28;20586;-59
2023/08/16 03:09:35;;;;;;;10.02;9.23;;;18.40;99.90;;;;;;5025504;28;20041;-59
2023/08/16 03:12:01;;;;;;;11.15;8.55;;;18.50;99.90;;;;;;5028328;28;20545;-60
2023/08/16 03:14:28;;;;;;;8.98;8.10;;;18.50;99.90;;;;;;5016004;28;20022;-60
2023/08/16 03:16:54;;;;;;;8.25;7.55;;;18.50;99.90;;;;;;5033258;28;20048;-59
2023/08/16 03:19:20;;;;;;;7.97;7.28;;;18.40;99.90;;;;;;5034495;28;20052;-59
2023/08/16 03:21:45;;;;;;;7.90;7.13;;;18.40;99.90;;;;;;5029768;28;20025;-59
2023/08/16 03:24:11;;;;;;;8.07;7.38;;;18.30;99.90;;;;;;5028319;28;20493;-60
2023/08/16 03:26:37;;;;;;;7.80;7.18;;;18.20;99.90;;;;;;5027669;28;20034;-60
2023/08/16 03:29:03;;;;;;;9.38;8.55;;;18.20;99.90;;;;;;5026454;28;20710;-58
2023/08/16 03:31:29;;;;;;;8.30;7.60;;;18.20;99.90;;;;;;5024706;28;20105;-59
2023/08/16 03:33:55;;;;;;;7.75;7.00;;;18.20;99.90;;;;;;5024898;28;20149;-59
2023/08/16 03:36:20;;;;;;;12.15;7.40;;;18.10;99.90;;;;;;5028464;28;20134;-57
2023/08/16 03:38:46;;;;;;;8.07;7.38;;;18.10;99.90;;;;;;5027597;28;20030;-58
2023/08/16 03:41:12;;;;;;;9.68;7.32;;;18.10;99.90;;;;;;5030645;28;20506;-59
2023/08/16 03:43:37;;;;;;;8.07;7.43;;;18.10;99.90;;;;;;5032864;28;20028;-58
2023/08/16 03:46:04;;;;;;;8.27;7.57;;;18.00;99.90;;;;;;5031646;28;20025;-59
2023/08/16 03:48:30;;;;;;;7.53;6.95;;;18.00;99.90;;;;;;5032331;28;20082;-59
2023/08/16 03:50:56;;;;;;;7.35;6.68;;;18.10;99.90;;;;;;5029150;28;20101;-59
2023/08/16 03:53:22;;;;;;;6.65;6.15;;;18.10;99.90;;;;;;5028826;28;20022;-60
2023/08/16 03:55:47;;;;;;;5.03;4.55;;;18.00;99.90;;;;;;5027653;28;20049;-58
2023/08/16 03:58:13;;;;;;;8.15;4.75;;;17.90;99.90;;;;;;5030911;28;20080;-59
2023/08/16 04:00:40;;;;;;;4.57;4.15;;;17.80;99.90;;;;;;5031765;28;20567;-58
2023/08/16 04:03:06;;;;;;;6.18;4.95;;;17.80;99.90;;;;;;5028709;28;20018;-60
2023/08/16 04:05:33;;;;;;;4.70;4.40;;;17.80;99.90;;;;;;5028060;28;20536;-59
2023/08/16 04:07:58;;;;;;;6.45;5.55;;;17.90;99.90;;;;;;5034021;28;20052;-58
2023/08/16 04:10:24;;;;;;;8.60;4.90;;;18.00;99.90;;;;;;5028927;28;20350;-59
2023/08/16 04:12:49;;;;;;;5.70;4.47;;;18.00;99.90;;;;;;5031720;28;20044;-59
2023/08/16 04:15:15;;;;;;;4.47;4.07;;;18.00;99.90;;;;;;5034054;28;20030;-59
2023/08/16 04:17:41;;;;;;;4.40;4.10;;;18.00;99.90;;;;;;5022731;28;20017;-59
2023/08/16 04:20:07;;;;;;;5.07;4.50;;;18.10;99.90;;;;;;5033263;28;20124;-57
2023/08/16 04:22:34;;;;;;;4.25;3.85;;;18.10;99.90;;;;;;5033498;28;20025;-59
2023/08/16 04:25:01;;;;;;;5.18;4.78;;;18.20;99.90;;;;;;5027709;28;20029;-59
2023/08/16 04:27:26;;;;;;;6.50;5.90;;;18.20;99.90;;;;;;5022769;28;20092;-58
2023/08/16 04:29:52;;;;;;;7.20;6.65;;;18.30;99.90;;;;;;5025830;28;20033;-60
2023/08/16 04:32:18;;;;;;;8.02;7.25;;;18.40;99.90;;;;;;5030718;28;20132;-58
2023/08/16 04:34:43;;;;;;;10.82;9.82;;;18.60;99.90;;;;;;5029133;28;20027;-58
2023/08/16 04:37:09;;;;;;;10.82;9.48;;;18.70;99.90;;;;;;5027332;28;20021;-57
2023/08/16 04:39:34;;;;;;;10.25;9.45;;;18.80;99.90;;;;;;5034110;28;20569;-59
2023/08/16 04:42:00;;;;;;;10.30;9.52;;;18.90;99.90;;;;;;5030524;28;20057;-57
2023/08/16 04:44:26;;;;;;;8.93;8.15;;;19.10;99.90;;;;;;5029149;28;20049;-60
2023/08/16 04:46:51;;;;;;;9.18;8.48;;;19.20;99.90;;;;;;5029287;28;20408;-59
2023/08/16 04:49:18;;;;;;;9.88;8.98;;;19.30;99.90;;;;;;5024284;28;20443;-60
2023/08/16 04:51:44;;;;;;;8.52;7.93;;;19.40;99.90;;;;;;5023336;28;20026;-59
2023/08/16 04:54:09;;;;;;;9.57;8.70;;;19.50;99.90;;;;;;5013435;28;20557;-58
2023/08/16 04:56:36;;;;;;;7.32;6.63;;;19.50;99.90;;;;;;5026477;28;20021;-61
2023/08/16 04:59:01;;;;;;;8.80;8.10;;;19.50;99.90;;;;;;5021768;28;20042;-58
2023/08/16 05:01:27;;;;;;;9.82;9.02;;;19.60;99.90;;;;;;5020841;28;20025;-60
2023/08/16 05:03:53;;;;;;;9.57;8.65;;;19.70;99.90;;;;;;5022977;28;20041;-58
2023/08/16 05:06:19;;;;;;;8.55;7.85;;;19.70;99.90;;;;;;5025439;28;20034;-58
2023/08/16 05:08:45;;;;;;;8.55;7.75;;;19.80;99.90;;;;;;5026448;28;20666;-59
2023/08/16 05:11:10;;;;;;;11.13;10.15;;;19.90;99.90;;;;;;5026125;28;20033;-59
2023/08/16 05:13:36;;;;;;;13.82;11.35;;;20.00;99.90;;;;;;5024474;28;20038;-57
2023/08/16 05:16:02;;;;;;;11.95;10.85;;;20.00;99.90;;;;;;5023270;28;20541;-59
2023/08/16 05:18:28;;;;;;;11.90;11.00;;;20.10;99.90;;;;;;5027614;28;20429;-59
2023/08/16 05:20:57;;;;;;;11.35;10.35;;;20.20;99.90;;;;;;5027196;28;20055;-61
2023/08/16 05:23:22;;;;;;;10.93;10.10;;;20.20;99.90;;;;;;5027405;28;20034;-59
2023/08/16 05:25:48;;;;;;;9.35;8.65;;;20.20;99.90;;;;;;5023838;28;20032;-58
2023/08/16 05:28:14;;;;;;;10.73;9.82;;;20.20;99.90;;;;;;5026974;28;20029;-58
2023/08/16 05:30:39;;;;;;;9.40;8.52;;;20.30;99.90;;;;;;5027565;28;20072;-58
2023/08/16 05:33:05;;;;;;;11.05;8.20;;;20.30;99.90;;;;;;5027269;28;20021;-59
2023/08/16 05:35:34;;;;;;;7.22;6.63;;;20.40;99.90;;;;;;5027524;28;20583;-57
2023/08/16 05:38:01;;;;;;;7.35;6.70;;;20.40;99.90;;;;;;5024231;28;20041;-60
2023/08/16 05:40:26;;;;;;;7.07;6.57;;;20.30;99.90;;;;;;5025959;28;20056;-60
2023/08/16 05:42:52;;;;;;;7.18;6.35;;;20.30;99.90;;;;;;5026385;28;20029;-58
2023/08/16 05:45:21;;;;;;;7.65;7.05;;;20.30;99.90;;;;;;5028785;28;20029;-57
2023/08/16 05:47:46;;;;;;;7.43;6.82;;;20.30;99.90;;;;;;5029734;28;20269;-60
2023/08/16 05:50:12;;;;;;;9.55;7.93;;;20.30;99.90;;;;;;5030278;28;20469;-60
2023/08/16 05:52:38;;;;;;;9.65;7.03;;;20.40;99.90;;;;;;5027084;28;20034;-59
2023/08/16 05:55:04;;;;;;;8.43;7.82;;;20.50;99.90;;;;;;5027507;28;20076;-58
2023/08/16 05:57:29;;;;;;;8.55;7.88;;;20.50;99.90;;;;;;5022873;28;20537;-60
2023/08/16 05:59:55;;;;;;;9.60;8.00;;;20.50;99.90;;;;;;5028634;28;20548;-61
2023/08/16 06:02:23;;;;;;;8.77;8.13;;;20.50;99.90;;;;;;5025422;28;20014;-60
2023/08/16 06:04:49;;;;;;;8.98;8.07;;;20.60;99.90;;;;;;5027069;28;20037;-59
2023/08/16 06:07:16;;;;;;;8.88;8.13;;;20.70;99.90;;;;;;5030516;28;20091;-60
2023/08/16 06:09:42;;;;;;;10.20;9.10;;;20.70;99.90;;;;;;5025965;28;20033;-60
2023/08/16 06:12:08;;;;;;;9.95;8.40;;;20.80;99.90;;;;;;5031272;28;20086;-58
2023/08/16 06:14:33;;;;;;;9.40;8.50;;;20.80;99.90;;;;;;5025869;28;20032;-58
2023/08/16 06:16:59;;;;;;;9.57;8.73;;;20.70;99.90;;;;;;5030119;28;20034;-59
2023/08/16 06:19:24;;;;;;;10.70;9.65;;;20.80;99.90;;;;;;5030379;28;20822;-59
2023/08/16 06:21:50;;;;;;;9.35;8.45;;;20.90;99.90;;;;;;5027609;28;20112;-60
2023/08/16 06:24:16;;;;;;;9.02;8.15;;;20.90;99.90;;;;;;5031574;28;20033;-59
2023/08/16 06:26:41;;;;;;;9.65;8.95;;;21.00;99.90;;;;;;5024412;28;20029;-59
2023/08/16 06:29:07;;;;;;;10.65;9.77;;;21.10;99.90;;;;;;5023818;28;20034;-60
2023/08/16 06:31:33;;;;;;;10.57;9.77;;;21.10;99.90;;;;;;5034710;28;20036;-59
2023/08/16 06:34:00;;;;;;;9.20;8.40;;;21.10;99.90;;;;;;5029818;28;20522;-59
2023/08/16 06:36:26;;;;;;;9.18;8.05;;;21.20;99.90;;;;;;5033009;28;20026;-60
2023/08/16 06:38:53;;;;;;;8.52;7.70;;;21.30;99.90;;;;;;5037087;28;20037;-60
2023/08/16 06:41:19;;;;;;;8.00;7.43;;;21.30;99.90;;;;;;5032751;28;20029;-59
2023/08/16 06:43:45;;;;;;;8.52;7.85;;;21.40;99.90;;;;;;5034046;28;20154;-60
2023/08/16 06:46:10;;;;;;;9.05;8.25;;;21.50;99.90;;;;;;5030628;28;20038;-60
2023/08/16 06:48:36;;;;;;;8.05;7.43;;;21.50;99.90;;;;;;5030478;28;20037;-60
2023/08/16 06:51:02;;;;;;;8.20;7.60;;;21.60;99.90;;;;;;5033415;28;20041;-61
2023/08/16 06:53:30;;;;;;;9.30;8.40;;;21.60;99.90;;;;;;5035112;28;20033;-59
2023/08/16 06:55:56;;;;;;;9.02;8.25;;;21.60;99.90;;;;;;5027975;28;20037;-58
2023/08/16 06:58:21;;;;;;;8.48;7.80;;;21.60;99.90;;;;;;5021604;28;20026;-60
2023/08/16 07:00:49;;;;;;;8.45;7.85;;;21.60;99.90;;;;;;5031084;28;20406;-59
2023/08/16 07:03:15;;;;;;;9.70;9.00;;;21.60;99.90;;;;;;5030359;28;20026;-60
2023/08/16 07:05:41;;;;;;;9.85;8.23;;;21.50;99.90;;;;;;5030512;28;20022;-58
2023/08/16 07:08:07;;;;;;;8.80;8.05;;;21.50;99.90;;;;;;5034830;28;20524;-58
2023/08/16 07:10:33;;;;;;;9.27;8.40;;;21.50;99.90;;;;;;5032146;28;20121;-58
2023/08/16 07:12:58;;;;;;;8.45;7.75;;;21.50;99.90;;;;;;5033629;28;20494;-60
2023/08/16 07:15:24;;;;;;;8.93;8.05;;;21.50;99.90;;;;;;5031291;28;20041;-58
2023/08/16 07:17:50;;;;;;;8.23;7.53;;;21.60;99.90;;;;;;5024225;28;20490;-58
2023/08/16 07:20:15;;;;;;;8.05;7.43;;;21.70;99.90;;;;;;5025558;28;20033;-59
2023/08/16 07:22:41;;;;;;;8.30;7.50;;;21.70;99.90;;;;;;5022041;28;20092;-59
2023/08/16 07:25:08;;;;;;;8.00;7.40;;;21.60;99.90;;;;;;5028010;28;20527;-58
2023/08/16 07:27:34;;;;;;;10.63;7.13;;;21.60;99.90;;;;;;5027250;28;20057;-57
2023/08/16 07:30:00;;;;;;;8.77;7.97;;;21.60;99.90;;;;;;5020494;28;20028;-60
2023/08/16 07:32:26;;;;;;;8.38;7.68;;;21.70;99.90;;;;;;5025682;28;20030;-58
2023/08/16 07:34:52;;;;;;;7.72;7.03;;;21.70;99.90;;;;;;5023329;28;20025;-60
2023/08/16 07:37:18;;;;;;;7.72;7.10;;;21.80;99.90;;;;;;5028404;28;20118;-59
2023/08/16 07:39:44;;;;;;;8.77;6.93;;;21.90;99.90;;;;;;5030085;28;20040;-59
2023/08/16 07:42:10;;;;;;;7.15;6.60;;;22.10;99.90;;;;;;5029093;28;20037;-59
2023/08/16 07:44:38;;;;;;;8.45;7.20;;;22.40;99.90;;;;;;5027338;28;20030;-58
2023/08/16 07:47:04;;;;;;;7.22;6.72;;;22.60;99.90;;;;;;5025274;28;20393;-61
2023/08/16 07:49:30;;;;;;;6.20;5.63;;;22.90;99.90;;;;;;5030169;28;20053;-59
2023/08/16 07:51:56;;;;;;;6.50;5.97;;;23.10;99.90;;;;;;5029683;28;20033;-61
2023/08/16 07:54:23;;;;;;;5.82;5.28;;;23.40;99.90;;;;;;5028458;28;20026;-60
2023/08/16 07:56:49;;;;;;;6.40;5.63;;;23.50;99.90;;;;;;5031778;28;20029;-59
2023/08/16 07:59:15;;;;;;;6.40;5.80;;;23.60;99.90;;;;;;5027029;28;20047;-60
2023/08/16 08:01:40;;;;;;;5.93;5.43;;;23.50;99.90;;;;;;5024419;28;20061;-60
2023/08/16 08:04:06;;;;;;;5.82;5.43;;;23.50;99.90;;;;;;5023289;28;20037;-60
2023/08/16 08:06:32;;;;;;;6.53;5.57;;;23.50;99.90;;;;;;5024676;28;20829;-60
2023/08/16 08:08:58;;;;;;;6.70;6.20;;;23.40;99.90;;;;;;5022008;28;20030;-60
2023/08/16 08:11:23;;;;;;;7.55;7.03;;;23.40;99.90;;;;;;5026222;28;20140;-60
2023/08/16 08:13:49;;;;;;;8.02;6.57;;;23.40;99.90;;;;;;5025440;28;20064;-59
2023/08/16 08:16:15;;;;;;;7.15;6.45;;;23.40;99.90;;;;;;5028552;28;20038;-60
2023/08/16 08:18:40;;;;;;;6.10;5.55;;;23.40;99.90;;;;;;5026608;28;20187;-59
2023/08/16 08:21:06;;;;;;;6.40;5.90;;;23.40;99.90;;;;;;5028185;28;20034;-60
2023/08/16 08:23:31;;;;;;;6.45;5.95;;;23.40;99.90;;;;;;5025420;28;20493;-58
2023/08/16 08:25:57;;;;;;;7.03;5.90;;;23.40;99.90;;;;;;5024000;28;20087;-58
2023/08/16 08:28:23;;;;;;;9.80;6.70;;;23.40;99.90;;;;;;5026883;28;20112;-60
2023/08/16 08:30:49;;;;;;;6.13;5.63;;;23.40;99.90;;;;;;5028980;28;20026;-59
2023/08/16 08:33:14;;;;;;;6.97;6.28;;;23.40;99.90;;;;;;5032005;28;20040;-60
2023/08/16 08:35:40;;;;;;;6.30;5.70;;;23.50;99.90;;;;;;5027831;28;20571;-58
2023/08/16 08:38:05;;;;;;;7.18;6.28;;;23.60;99.90;;;;;;5028691;28;20041;-60
2023/08/16 08:40:32;;;;;;;6.55;6.05;;;23.60;99.90;;;;;;5028928;28;20512;-60
2023/08/16 08:43:03;;;;;;;6.78;6.03;;;23.70;99.90;;;;;;5027363;28;20091;-59
2023/08/16 08:45:30;;;;;;;7.20;6.47;;;23.70;99.90;;;;;;5025858;28;20540;-59
2023/08/16 08:47:57;;;;;;;6.10;5.63;;;23.90;99.90;;;;;;5026766;28;20033;-58
2023/08/16 08:50:23;;;;;;;6.60;6.00;;;23.90;99.90;;;;;;5024079;28;20422;-61
2023/08/16 08:52:51;;;;;;;5.78;5.38;;;23.90;99.90;;;;;;5028908;28;20029;-60
2023/08/16 08:55:18;;;;;;;6.78;6.25;;;23.90;99.90;;;;;;5026320;28;20025;-60
2023/08/16 08:57:50;;;;;;;6.85;6.20;;;23.90;99.90;;;;;;5023552;28;20076;-61
2023/08/16 09:00:18;;;;;;;5.97;5.38;;;24.00;99.90;;;;;;5019152;28;20038;-60
2023/08/16 09:02:46;;;;;;;5.93;5.43;;;24.10;99.90;;;;;;5029227;28;20389;-60
2023/08/16 09:05:13;;;;;;;6.55;5.45;;;24.20;99.90;;;;;;5008859;28;20055;-57
2023/08/16 09:07:41;;;;;;;6.10;5.60;;;24.30;99.90;;;;;;5024422;28;20036;-59
2023/08/16 09:10:09;;;;;;;8.98;5.60;;;24.40;99.90;;;;;;5023826;28;20033;-60
2023/08/16 09:12:37;;;;;;;5.50;5.10;;;24.50;99.90;;;;;;5029127;28;20033;-59
2023/08/16 09:15:03;;;;;;;5.32;4.95;;;24.60;99.90;;;;;;5029587;28;20508;-57
2023/08/16 09:17:29;;;;;;;5.22;4.82;;;24.70;99.90;;;;;;5025885;28;20036;-59
2023/08/16 09:19:54;;;;;;;6.28;4.50;;;24.90;99.90;;;;;;5030964;28;20037;-59
2023/08/16 09:22:20;;;;;;;5.13;4.72;;;25.10;99.90;;;;;;5024857;28;20095;-61
2023/08/16 09:24:46;;;;;;;5.10;4.63;;;25.20;99.90;;;;;;5025007;28;20034;-60
2023/08/16 09:27:12;;;;;;;6.05;4.75;;;25.50;99.90;;;;;;5024128;28;20049;-60
2023/08/16 09:29:39;;;;;;;5.28;4.53;;;25.70;99.90;;;;;;5025046;28;20038;-60
2023/08/16 09:32:07;;;;;;;5.25;4.75;;;25.90;99.90;;;;;;5024978;28;20093;-57
2023/08/16 09:34:32;;;;;;;6.63;4.95;;;25.90;99.90;;;;;;5024677;28;20034;-59
2023/08/16 09:37:00;;;;;;;4.90;4.47;;;26.10;99.90;;;;;;5028401;28;20026;-59
2023/08/16 09:39:27;;;;;;;4.40;4.10;;;26.30;99.90;;;;;;5028624;28;20255;-58
2023/08/16 09:41:52;;;;;;;4.63;4.32;;;26.40;99.90;;;;;;5029419;28;20013;-60
2023/08/16 09:44:19;;;;;;;6.07;4.43;;;26.60;99.90;;;;;;5027828;28;20401;-59
2023/08/16 09:46:45;;;;;;;5.15;4.75;;;26.70;99.90;;;;;;5030464;28;20099;-59
2023/08/16 09:49:10;;;;;;;4.57;4.20;;;26.70;99.90;;;;;;5027365;28;20115;-59
2023/08/16 09:51:40;;;;;;;4.72;4.00;;;26.80;99.90;;;;;;5025123;28;20072;-59
2023/08/16 09:54:14;;;;;;;3.70;3.40;;;27.00;99.90;;;;;;5028599;28;20029;-59
2023/08/16 09:56:41;;;;;;;5.80;4.47;;;27.10;99.90;;;;;;5028746;28;20063;-60
2023/08/16 09:59:11;;;;;;;4.45;4.05;;;27.10;99.90;;;;;;5024682;28;20502;-59
2023/08/16 10:01:37;;;;;;;4.30;4.00;;;27.10;99.90;;;;;;5024818;28;20033;-58
2023/08/16 10:04:04;;;;;;;5.05;3.70;;;27.20;99.90;;;;;;5024557;28;20029;-60
2023/08/16 10:06:31;;;;;;;4.13;3.72;;;27.20;99.90;;;;;;5026166;28;20032;-58
2023/08/16 10:08:57;;;;;;;6.57;4.45;;;27.20;99.90;;;;;;5030137;28;20195;-60
2023/08/16 10:11:23;;;;;;;4.00;3.70;;;27.30;99.90;;;;;;5029286;28;20477;-59
2023/08/16 10:13:50;;;;;;;4.72;4.32;;;27.30;99.90;;;;;;5021954;28;20126;-61
2023/08/16 10:16:18;;;;;;;4.18;3.88;;;27.40;99.90;;;;;;5008271;28;20026;-61
2023/08/16 10:18:45;;;;;;;4.32;3.97;;;27.50;99.90;;;;;;5019831;28;20030;-60
2023/08/16 10:21:18;;;;;;;4.40;4.00;;;27.60;99.90;;;;;;5034391;28;20042;-58
2023/08/16 10:23:46;;;;;;;4.05;3.75;;;27.70;99.90;;;;;;5026989;28;20036;-60
2023/08/16 10:26:17;;;;;;;4.85;4.18;;;27.80;99.90;;;;;;5023629;28;20149;-59
2023/08/16 10:28:51;;;;;;;4.38;3.88;;;27.90;99.90;;;;;;5020107;28;20430;-59
2023/08/16 10:31:21;;;;;;;4.28;3.88;;;27.90;99.90;;;;;;5023940;28;20030;-59
2023/08/16 10:33:50;;;;;;;5.17;4.43;;;28.20;99.90;;;;;;5028006;28;20076;-60
2023/08/16 10:36:16;;;;;;;4.40;4.00;;;28.40;99.90;;;;;;5027351;28;20037;-60
2023/08/16 10:38:42;;;;;;;3.92;3.63;;;28.80;99.90;;;;;;5023873;28;20037;-61
2023/08/16 10:41:11;;;;;;;4.20;3.80;;;29.10;99.90;;;;;;5025029;28;20505;-61
2023/08/16 10:43:37;;;;;;;4.03;3.72;;;29.30;99.90;;;;;;5029226;28;20034;-59
2023/08/16 10:46:03;;;;;;;4.10;3.70;;;29.50;99.90;;;;;;5026707;28;20083;-60
2023/08/16 10:48:35;;;;;;;5.88;3.20;;;29.70;99.90;;;;;;5024091;28;20025;-59
2023/08/16 10:51:06;;;;;;;3.90;3.60;;;29.70;99.90;;;;;;5027857;28;20024;-60
2023/08/16 10:53:33;;;;;;;3.85;3.45;;;29.60;99.90;;;;;;5024642;28;20017;-59
2023/08/16 10:56:04;;;;;;;3.90;3.20;;;29.60;99.90;;;;;;5023066;28;20072;-59
2023/08/16 10:58:30;;;;;;;4.10;3.45;;;29.40;99.90;;;;;;5033200;28;20045;-59
2023/08/16 11:00:57;;;;;;;4.15;3.53;;;29.40;99.90;;;;;;5026585;28;20046;-57
2023/08/16 11:03:33;;;;;;;3.58;3.28;;;29.40;99.90;;;;;;5026147;28;20025;-58
2023/08/16 11:06:01;;;;;;;3.45;3.17;;;29.40;99.90;;;;;;5025482;28;20116;-58
2023/08/16 11:08:32;;;;;;;3.63;3.42;;;29.30;99.90;;;;;;5026318;28;20026;-58
2023/08/16 11:11:01;;;;;;;4.68;2.85;;;29.30;99.90;;;;;;5028546;28;20054;-59
2023/08/16 11:13:28;;;;;;;3.83;3.45;;;29.20;99.90;;;;;;5029236;28;20879;-58
2023/08/16 11:15:54;;;;;;;3.88;3.58;;;29.00;99.90;;;;;;5026230;28;20034;-59
2023/08/16 11:18:30;;;;;;;3.92;3.42;;;28.90;99.90;;;;;;5024432;28;20029;-58
2023/08/16 11:21:00;;;;;;;4.55;3.55;;;28.90;99.90;;;;;;5028001;28;20143;-58
2023/08/16 11:23:33;;;;;;;4.10;3.50;;;28.90;99.90;;;;;;5025248;28;20033;-60
2023/08/16 11:26:03;;;;;;;3.13;2.92;;;29.00;99.90;;;;;;5026963;28;20055;-59
2023/08/16 11:28:32;;;;;;;3.97;3.20;;;29.00;99.90;;;;;;5026576;28;20113;-59
2023/08/16 11:31:00;;;;;;;3.63;2.85;;;28.90;99.90;;;;;;5024162;28;20033;-59
2023/08/16 11:33:32;;;;;;;4.28;2.55;;;29.00;99.90;;;;;;5029340;28;20564;-60
2023/08/16 11:35:59;;;;;;;3.00;2.70;;;29.20;99.90;;;;;;5025843;28;20030;-60
2023/08/16 11:38:25;;;;;;;2.67;2.47;;;29.20;99.90;;;;;;5024025;28;20045;-59
2023/08/16 11:40:51;;;;;;;2.33;2.13;;;29.30;99.90;;;;;;5023571;28;20021;-60
2023/08/16 11:43:17;;;;;;;2.55;2.25;;;29.30;99.90;;;;;;5029387;28;20049;-60
2023/08/16 11:45:50;;;;;;;2.47;2.28;;;29.40;99.90;;;;;;5027751;28;20064;-60
2023/08/16 11:48:16;;;;;;;2.85;2.30;;;29.50;99.90;;;;;;5028421;28;20049;-60
2023/08/16 11:50:42;;;;;;;2.30;2.10;;;29.50;99.90;;;;;;5027563;28;20083;-59
2023/08/16 11:53:08;;;;;;;2.10;1.85;;;29.50;99.90;;;;;;5024458;28;20025;-59
2023/08/16 11:55:34;;;;;;;3.17;1.75;;;29.50;99.90;;;;;;5023686;28;20033;-60
2023/08/16 11:58:05;;;;;;;2.45;2.00;;;29.70;99.20;;;;;;5025731;28;20084;-60
2023/08/16 12:00:32;;;;;;;1.95;1.60;;;29.80;95.00;;;;;;5027645;28;20025;-59
2023/08/16 12:03:02;;;;;;;1.95;1.75;;;29.80;92.60;;;;;;5029185;28;20041;-60
2023/08/16 12:05:35;;;;;;;1.88;1.70;;;29.70;90.80;;;;;;5022859;28;20030;-59
2023/08/16 12:08:05;;;;;;;2.28;2.08;;;29.80;95.00;;;;;;5031553;28;20065;-61
2023/08/16 12:10:33;;;;;;;2.00;1.80;;;29.90;99.90;;;;;;5028523;28;20037;-59
2023/08/16 12:13:09;;;;;;;2.67;1.95;;;30.00;98.40;;;;;;5032960;28;20378;-59
2023/08/16 12:15:34;;;;;;;3.42;1.73;;;30.00;95.40;;;;;;5027529;28;20025;-59
2023/08/16 12:18:00;;;;;;;2.95;1.60;;;30.00;93.20;;;;;;5028527;28;20029;-57
2023/08/16 12:20:26;;;;;;;2.00;1.67;;;29.90;91.10;;;;;;5032163;28;20068;-57
2023/08/16 12:22:53;;;;;;;2.72;1.95;;;30.00;92.00;;;;;;5028341;28;20057;-60
2023/08/16 12:25:19;;;;;;;2.60;2.17;;;30.20;90.00;;;;;;5034876;28;20115;-60
2023/08/16 12:27:45;;;;;;;5.03;2.22;;;30.20;90.80;;;;;;5027234;28;20132;-59
2023/08/16 12:30:11;;;;;;;3.30;1.95;;;30.30;90.60;;;;;;5030487;28;20026;-60
2023/08/16 12:32:36;;;;;;;2.42;1.92;;;30.40;93.10;;;;;;5026686;28;20100;-58
2023/08/16 12:35:02;;;;;;;5.07;2.78;;;30.30;91.50;;;;;;5027837;28;20045;-60
2023/08/16 12:37:28;;;;;;;2.60;2.20;;;30.30;93.50;;;;;;5028124;28;20145;-58
2023/08/16 12:39:54;;;;;;;5.45;2.33;;;30.20;95.20;;;;;;5032413;28;20032;-58
2023/08/16 12:42:19;;;;;;;2.58;2.20;;;30.10;94.80;;;;;;5026846;28;20120;-57
2023/08/16 12:44:45;;;;;;;2.53;2.25;;;30.00;96.20;;;;;;5026098;28;20140;-61